Time;durP1;ratioP1;P1;durP2;ratioP2;P2;SDS_P1;SDS_P2;PMS_P1;PMS_P2;Temp;Humidity;BMP_temperature;BMP_pressure;BME280_temperature;BME280_humidity;BME280_pressure;Samples;Min_cycle;Max_cycle;Signal;HPM_P1;HPM_P2
2021/12/06 00:01:48;;;;;;;16.67;7.93;;;;;;;-0.81;70.05;99579.63;4970956;28;20408;-61
2021/12/06 00:04:22;;;;;;;18.92;8.63;;;;;;;-0.84;70.14;99580.16;4969767;28;20050;-61
2021/12/06 00:06:54;;;;;;;20.55;8.75;;;;;;;-0.81;70.09;99578.78;4958561;28;20062;-62
2021/12/06 00:09:25;;;;;;;17.25;7.82;;;;;;;-0.80;70.04;99572.28;4971740;28;20057;-62
2021/12/06 00:11:57;;;;;;;21.13;8.15;;;;;;;-0.78;69.79;99583.75;4971741;28;20125;-61
2021/12/06 00:14:28;;;;;;;16.27;6.78;;;;;;;-0.81;69.88;99576.91;4969906;28;20523;-62
2021/12/06 00:17:06;;;;;;;16.70;6.70;;;;;;;-0.84;69.83;99576.59;4972008;28;20616;-62
2021/12/06 00:19:33;;;;;;;16.77;7.25;;;;;;;-0.87;69.95;99575.22;4970136;28;20061;-62
2021/12/06 00:22:03;;;;;;;21.23;7.57;;;;;;;-0.81;69.86;99578.78;4972011;28;20054;-63
2021/12/06 00:24:31;;;;;;;20.50;8.07;;;;;;;-0.77;69.68;99574.50;4969510;28;20146;-62
2021/12/06 00:26:58;;;;;;;18.20;8.23;;;;;;;-0.70;69.26;99575.09;4971501;28;20105;-62
2021/12/06 00:29:25;;;;;;;19.40;8.27;;;;;;;-0.66;69.30;99570.75;4969781;28;20061;-62
2021/12/06 00:31:52;;;;;;;23.40;9.45;;;;;;;-0.65;69.47;99572.41;4971652;28;20047;-62
2021/12/06 00:34:21;;;;;;;21.05;8.18;;;;;;;-0.67;69.22;99569.09;4969413;28;20137;-61
2021/12/06 00:37:04;;;;;;;19.20;8.25;;;;;;;-0.66;69.58;99562.56;4971660;28;20051;-61
2021/12/06 00:39:32;;;;;;;17.55;8.68;;;;;;;-0.61;69.30;99568.06;4969527;28;20054;-61
2021/12/06 00:42:03;;;;;;;25.38;8.50;;;;;;;-0.56;69.51;99570.84;4971281;28;20051;-62
2021/12/06 00:44:30;;;;;;;26.45;9.48;;;;;;;-0.53;68.96;99581.25;4969502;28;20082;-61
2021/12/06 00:46:57;;;;;;;23.83;8.60;;;;;;;-0.54;69.03;99568.66;4971419;28;20080;-62
2021/12/06 00:49:24;;;;;;;24.55;9.70;;;;;;;-0.55;69.29;99572.50;4969196;28;20073;-62
2021/12/06 00:51:51;;;;;;;19.30;7.28;;;;;;;-0.56;69.32;99570.84;4971713;28;20054;-62
2021/12/06 00:54:18;;;;;;;16.15;6.72;;;;;;;-0.71;69.48;99574.25;4971951;28;20055;-63
2021/12/06 00:56:45;;;;;;;14.80;6.93;;;;;;;-0.87;69.36;99568.91;4971226;28;20062;-61
2021/12/06 00:59:12;;;;;;;23.88;8.32;;;;;;;-0.94;69.45;99565.56;4954167;28;20133;-63
2021/12/06 01:01:39;;;;;;;17.35;8.35;;;;;;;-0.96;69.56;99562.25;4970232;28;20090;-63
2021/12/06 01:04:07;;;;;;;14.90;6.60;;;;;;;-0.96;69.21;99559.53;4971837;28;20412;-62
2021/12/06 01:06:34;;;;;;;18.30;8.38;;;;;;;-0.96;69.36;99570.47;4970622;28;20043;-62
2021/12/06 01:09:01;;;;;;;17.92;7.13;;;;;;;-0.94;69.24;99569.13;4971454;28;20502;-62
2021/12/06 01:11:28;;;;;;;19.38;7.90;;;;;;;-0.91;68.91;99563.16;4969252;28;20532;-61
2021/12/06 01:13:55;;;;;;;24.02;8.35;;;;;;;-0.94;69.13;99562.84;4957053;28;20400;-62
2021/12/06 01:16:22;;;;;;;20.23;7.88;;;;;;;-0.92;69.13;99566.16;4956711;28;20565;-62
2021/12/06 01:18:49;;;;;;;21.60;8.57;;;;;;;-0.87;69.11;99560.72;4975071;28;20084;-62
2021/12/06 01:21:38;;;;;;;19.40;7.57;;;;;;;-0.96;68.91;99554.91;4973125;28;20065;-62
2021/12/06 01:24:05;;;;;;;18.05;7.60;;;;;;;-0.90;68.71;99562.06;4975452;28;20479;-61
2021/12/06 01:29:36;;;;;;;17.83;7.10;;;;;;;-0.93;69.02;99569.94;4974994;28;20120;-62
2021/12/06 01:32:03;;;;;;;21.60;8.20;;;;;;;-0.90;68.73;99569.44;4974542;28;20490;-62
2021/12/06 01:40:02;;;;;;;17.98;7.30;;;;;;;-0.72;68.59;99572.63;4973666;28;20054;-62
2021/12/06 01:42:29;;;;;;;19.83;7.40;;;;;;;-0.68;68.45;99575.66;4974803;28;20186;-62
2021/12/06 01:44:57;;;;;;;17.90;7.28;;;;;;;-0.70;68.59;99566.91;4974225;28;20541;-63
2021/12/06 01:47:29;;;;;;;17.27;8.38;;;;;;;-0.67;68.57;99571.84;4974478;28;20081;-61
2021/12/06 01:49:59;;;;;;;24.10;8.38;;;;;;;-0.71;68.63;99577.00;4957159;28;20064;-62
2021/12/06 01:52:31;;;;;;;;;;;;;;;-0.81;68.42;99579.63;4974927;28;20145;-62
2021/12/06 01:54:59;;;;;;;19.83;6.65;;;;;;;-0.82;68.62;99583.47;4974359;28;19932;-62
2021/12/06 01:57:28;;;;;;;20.73;7.72;;;;;;;-0.75;68.35;99583.22;4958764;28;20046;-62
2021/12/06 01:59:56;;;;;;;21.95;9.20;;;;;;;-0.72;68.60;99588.16;4972544;28;20127;-62
2021/12/06 02:02:27;;;;;;;17.00;7.57;;;;;;;-0.66;68.43;99592.59;4974140;28;20069;-61
2021/12/06 02:04:55;;;;;;;17.30;7.38;;;;;;;-0.70;68.55;99589.59;4972338;28;20061;-50
2021/12/06 02:07:25;;;;;;;19.15;8.45;;;;;;;-0.69;68.41;99593.13;4974567;28;20081;-57
2021/12/06 02:09:54;;;;;;;19.08;7.85;;;;;;;-0.68;68.45;99589.31;4972286;28;20411;-56
2021/12/06 02:12:22;;;;;;;24.90;7.65;;;;;;;-0.65;68.35;99591.53;4957947;28;20101;-58
2021/12/06 02:17:21;;;;;;;22.25;8.05;;;;;;;-0.67;68.22;99591.78;4974143;28;20407;-57
2021/12/06 02:19:58;;;;;;;15.32;7.15;;;;;;;-0.70;68.49;99596.94;4956115;28;20430;-56
2021/12/06 02:22:27;;;;;;;17.20;7.70;;;;;;;-0.74;68.61;99601.28;4974115;28;20134;-54
2021/12/06 02:24:55;;;;;;;22.15;7.38;;;;;;;-0.74;68.46;99606.75;4970598;28;20133;-55
2021/12/06 02:27:25;;;;;;;27.90;8.68;;;;;;;-0.74;68.40;99609.47;4973973;28;20043;-62
2021/12/06 02:29:56;;;;;;;22.30;8.40;;;;;;;-0.76;68.59;99603.44;4973625;28;20050;-61
2021/12/06 02:32:23;;;;;;;26.55;8.48;;;;;;;-0.78;68.70;99600.13;4973912;28;20050;-62
2021/12/06 02:34:55;;;;;;;38.60;10.93;;;;;;;-0.77;68.70;99601.78;4971520;28;20051;-62
2021/12/06 02:37:27;;;;;;;28.15;10.77;;;;;;;-0.72;68.60;99599.09;4965734;28;20425;-62
2021/12/06 02:40:04;;;;;;;30.65;11.13;;;;;;;-0.75;68.78;99602.34;4973075;28;20101;-62
2021/12/06 02:42:31;;;;;;;31.00;11.13;;;;;;;-0.85;68.88;99604.97;4973666;28;20078;-61
2021/12/06 02:44:58;;;;;;;28.75;12.18;;;;;;;-0.91;68.92;99606.84;4972833;28;20137;-61
2021/12/06 02:47:25;;;;;;;35.75;11.95;;;;;;;-0.95;69.37;99599.44;4973505;28;20069;-61
2021/12/06 02:49:52;;;;;;;26.52;11.05;;;;;;;-1.05;69.52;99615.66;4955583;28;20422;-56
2021/12/06 02:52:19;;;;;;;30.15;10.65;;;;;;;-1.08;69.69;99622.47;4973317;28;20101;-61
2021/12/06 02:54:54;;;;;;;41.58;11.60;;;;;;;-0.99;69.60;99614.66;4971751;28;20058;-61
2021/12/06 02:57:32;;;;;;;36.72;12.02;;;;;;;-0.97;69.38;99623.41;4973187;28;20054;-61
2021/12/06 02:59:59;;;;;;;40.17;12.60;;;;;;;-1.02;69.58;99626.91;4971470;28;20066;-61
2021/12/06 03:02:30;;;;;;;48.50;13.40;;;;;;;-1.01;69.26;99622.28;4972942;28;20065;-60
2021/12/06 03:04:57;;;;;;;36.15;12.43;;;;;;;-1.05;69.65;99632.06;4971239;28;20081;-53
2021/12/06 03:07:28;;;;;;;37.40;13.10;;;;;;;-1.07;69.96;99631.50;4973039;28;20046;-50
2021/12/06 03:09:56;;;;;;;41.67;12.90;;;;;;;-0.99;69.52;99636.47;4956149;28;20054;-58
2021/12/06 03:12:26;;;;;;;36.97;13.50;;;;;;;-0.93;69.45;99640.91;4973136;28;20157;-58
2021/12/06 03:14:58;;;;;;;37.30;13.68;;;;;;;-0.92;69.45;99645.31;4971121;28;20105;-61
2021/12/06 03:17:30;;;;;;;36.40;12.70;;;;;;;-0.94;69.58;99642.84;4973297;28;20062;-58
2021/12/06 03:19:58;;;;;;;43.42;12.85;;;;;;;-1.03;69.75;99638.94;4970734;28;20090;-59
2021/12/06 03:22:26;;;;;;;31.40;11.82;;;;;;;-1.01;69.68;99633.22;4972979;28;20051;-51
2021/12/06 03:24:53;;;;;;;46.90;12.73;;;;;;;-1.02;69.73;99642.47;4954947;28;20058;-54
2021/12/06 03:27:21;;;;;;;48.17;12.27;;;;;;;-1.05;69.70;99642.97;4972949;28;20053;-61
2021/12/06 03:29:47;;;;;;;41.70;13.73;;;;;;;-1.06;70.16;99638.59;4971114;28;20079;-61
2021/12/06 03:32:15;;;;;;;38.92;13.88;;;;;;;-1.08;69.85;99644.31;4973041;28;20469;-55
2021/12/06 03:34:42;;;;;;;47.50;13.68;;;;;;;-1.13;70.13;99637.97;4970382;28;20057;-50
2021/12/06 03:37:09;;;;;;;44.90;13.27;;;;;;;-1.13;70.10;99637.97;4972545;28;20142;-56
2021/12/06 03:39:47;;;;;;;53.45;14.95;;;;;;;-1.18;70.29;99636.00;4971318;28;20051;-57
2021/12/06 03:42:21;;;;;;;57.00;16.65;;;;;;;-1.15;70.31;99637.41;4972251;28;20446;-56
2021/12/06 03:44:49;;;;;;;35.40;12.70;;;;;;;-1.14;70.24;99630.84;4970732;28;20068;-56
2021/12/06 03:47:29;;;;;;;34.80;12.93;;;;;;;-1.20;70.36;99640.06;4972281;28;20058;-55
2021/12/06 03:49:56;;;;;;;46.10;13.38;;;;;;;-1.22;70.49;99642.22;4970123;28;20057;-56
2021/12/06 03:52:24;;;;;;;40.22;13.95;;;;;;;-1.16;70.68;99641.22;4972299;28;20149;-58
2021/12/06 03:54:52;;;;;;;44.42;14.20;;;;;;;-1.12;70.08;99648.63;4972160;28;20438;-58
2021/12/06 03:57:20;;;;;;;46.45;15.52;;;;;;;-1.05;70.40;99653.88;4972637;28;20133;-57
2021/12/06 03:59:48;;;;;;;41.28;12.88;;;;;;;-1.21;70.33;99654.78;4970140;28;20065;-54
2021/12/06 04:02:15;;;;;;;49.60;14.70;;;;;;;-1.30;70.58;99657.13;4972328;28;20072;-58
2021/12/06 04:04:42;;;;;;;49.13;14.90;;;;;;;-1.24;70.75;99658.03;4970183;28;20495;-58
2021/12/06 04:07:10;;;;;;;46.58;14.65;;;;;;;-1.14;70.50;99671.78;4955455;28;20511;-58
2021/12/06 04:09:37;;;;;;;54.58;14.13;;;;;;;-1.07;70.47;99666.97;4971229;28;20062;-56
2021/12/06 04:12:05;;;;;;;41.35;13.73;;;;;;;-0.97;70.13;99664.38;4971307;28;20515;-56
2021/12/06 04:14:32;;;;;;;42.70;13.65;;;;;;;-1.03;70.56;99663.50;4971707;28;20521;-58
2021/12/06 04:17:00;;;;;;;50.53;14.90;;;;;;;-1.04;70.62;99661.81;4970703;28;20109;-57
2021/12/06 04:19:27;;;;;;;49.85;15.88;;;;;;;-0.96;70.96;99671.47;4972187;28;20082;-56
2021/12/06 04:21:54;;;;;;;50.40;14.70;;;;;;;-0.91;70.47;99677.00;4969501;28;20053;-58
2021/12/06 04:24:21;;;;;;;43.35;14.45;;;;;;;-0.91;70.42;99682.44;4972469;28;20402;-55
2021/12/06 04:26:48;;;;;;;42.60;14.60;;;;;;;-0.92;70.34;99680.81;4969485;28;20066;-55
2021/12/06 04:29:16;;;;;;;42.17;13.80;;;;;;;-0.92;70.10;99681.63;4972047;28;20055;-59
2021/12/06 04:31:46;;;;;;;43.63;16.10;;;;;;;-0.87;70.16;99689.03;4969337;28;20418;-53
2021/12/06 04:34:13;;;;;;;;;;;;;;;-0.92;70.25;99703.47;4971952;28;20058;-58
2021/12/06 04:36:43;;;;;;;43.25;13.00;;;;;;;-1.00;70.82;99689.44;4969884;28;20014;-58
2021/12/06 04:39:13;;;;;;;53.97;14.13;;;;;;;-1.01;70.56;99676.88;4971476;28;20057;-57
2021/12/06 04:41:40;;;;;;;34.60;14.38;;;;;;;-0.98;70.38;99693.56;4969206;28;20082;-58
2021/12/06 04:44:07;;;;;;;39.75;13.90;;;;;;;-1.02;70.29;99692.44;4971478;28;20438;-58
2021/12/06 04:46:36;;;;;;;41.55;14.40;;;;;;;-1.00;70.10;99694.91;4969377;28;20062;-57
2021/12/06 04:49:05;;;;;;;50.80;14.73;;;;;;;-1.14;70.29;99694.47;4970756;28;20129;-56
2021/12/06 04:51:34;;;;;;;52.00;14.23;;;;;;;-1.21;70.66;99695.72;4969416;28;20050;-52
2021/12/06 04:54:01;;;;;;;57.50;15.90;;;;;;;-1.37;71.11;99694.69;4971910;28;20055;-58
2021/12/06 04:56:34;;;;;;;54.20;15.80;;;;;;;-1.41;71.07;99695.44;4969516;28;20506;-57
2021/12/06 04:59:10;;;;;;;49.30;16.83;;;;;;;-1.46;71.38;99700.81;4970940;28;20053;-57
2021/12/06 05:01:38;;;;;;;43.95;17.27;;;;;;;-1.53;71.36;99701.00;4969316;28;20059;-56
2021/12/06 05:04:18;;;;;;;41.55;14.88;;;;;;;-1.53;71.36;99689.25;4971158;28;20051;-54
2021/12/06 05:06:48;;;;;;;37.47;13.55;;;;;;;-1.50;71.17;99702.41;4969191;28;20058;-57
2021/12/06 05:09:17;;;;;;;;;;;;;;;-1.50;70.90;99705.13;4971614;28;20078;-55
2021/12/06 05:11:44;;;;;;;45.72;13.70;;;;;;;-1.50;70.86;99700.50;4969118;28;20029;-56
2021/12/06 05:14:13;;;;;;;40.45;14.15;;;;;;;-1.46;71.01;99709.00;4971335;28;20089;-58
2021/12/06 05:16:40;;;;;;;41.50;14.05;;;;;;;-1.54;71.05;99704.00;4968701;28;20399;-57
2021/12/06 05:19:07;;;;;;;39.25;15.02;;;;;;;-1.60;71.20;99705.00;4971055;28;20051;-54
2021/12/06 05:21:35;;;;;;;39.70;14.27;;;;;;;-1.67;71.54;99715.22;4969115;28;20055;-58
2021/12/06 05:24:04;;;;;;;43.15;13.30;;;;;;;-1.68;71.10;99721.75;4971174;28;20051;-57
2021/12/06 05:26:31;;;;;;;43.72;14.88;;;;;;;-1.84;71.84;99714.44;4969331;28;20051;-58
2021/12/06 05:29:00;;;;;;;34.92;12.50;;;;;;;-1.83;71.77;99705.16;4970869;28;20067;-58
2021/12/06 05:31:29;;;;;;;47.00;13.73;;;;;;;-1.79;71.78;99706.31;4972455;28;20061;-56
2021/12/06 05:34:02;;;;;;;37.50;14.75;;;;;;;-1.75;71.49;99710.22;4972100;28;20054;-51
2021/12/06 05:36:29;;;;;;;40.92;13.30;;;;;;;-1.75;71.53;99715.66;4970030;28;20085;-54
2021/12/06 05:38:57;;;;;;;38.92;13.73;;;;;;;-1.71;71.21;99711.34;4969363;28;20503;-57
2021/12/06 05:41:24;;;;;;;39.45;14.77;;;;;;;-1.64;71.08;99714.72;4970327;28;20086;-57
2021/12/06 05:43:52;;;;;;;39.13;13.40;;;;;;;-1.60;71.42;99715.91;4962718;28;20051;-55
2021/12/06 05:46:19;;;;;;;39.63;13.40;;;;;;;-1.55;71.06;99718.69;4952301;28;20417;-57
2021/12/06 05:48:46;;;;;;;35.75;13.80;;;;;;;-1.56;71.30;99727.94;4968251;28;20102;-53
2021/12/06 05:51:12;;;;;;;40.95;13.57;;;;;;;-1.68;71.27;99719.03;4962875;28;20502;-58
2021/12/06 05:53:39;;;;;;;37.40;13.23;;;;;;;-1.69;71.22;99723.66;4968353;28;20058;-55
2021/12/06 05:56:06;;;;;;;38.15;13.07;;;;;;;-1.74;71.26;99720.88;4969901;28;20043;-56
2021/12/06 05:58:34;;;;;;;36.92;15.43;;;;;;;-1.73;71.28;99716.22;4969551;28;20047;-57
2021/12/06 06:01:02;;;;;;;36.70;11.95;;;;;;;-1.80;71.36;99716.41;4973910;28;20158;-58
2021/12/06 06:03:29;;;;;;;37.20;12.93;;;;;;;-1.83;70.94;99716.91;4972964;28;20058;-58
2021/12/06 06:05:58;;;;;;;40.08;12.60;;;;;;;-1.81;71.31;99727.56;4973971;28;20051;-58
2021/12/06 06:08:25;;;;;;;35.22;13.35;;;;;;;-1.82;71.35;99734.91;4971907;28;20038;-55
2021/12/06 06:10:53;;;;;;;39.50;11.77;;;;;;;-1.80;71.20;99730.03;4973154;28;20470;-58
2021/12/06 06:13:20;;;;;;;28.20;11.15;;;;;;;-1.75;71.01;99734.75;4971352;28;20106;-58
2021/12/06 06:15:50;;;;;;;38.88;11.90;;;;;;;-1.71;70.76;99733.16;4975362;28;20074;-54
2021/12/06 06:18:18;;;;;;;35.10;15.60;;;;;;;-1.78;70.78;99725.16;4966859;28;20089;-57
2021/12/06 06:20:53;;;;;;;32.95;12.15;;;;;;;-1.82;70.84;99729.47;4974711;28;20047;-59
2021/12/06 06:23:21;;;;;;;32.17;13.55;;;;;;;-1.88;70.83;99736.75;4971274;28;20058;-56
2021/12/06 06:25:48;;;;;;;28.58;12.20;;;;;;;-1.93;70.88;99728.47;4972656;28;20054;-58
2021/12/06 06:28:15;;;;;;;32.40;12.07;;;;;;;-1.90;70.97;99730.69;4972685;28;20058;-55
2021/12/06 06:30:42;;;;;;;30.75;12.38;;;;;;;-1.91;70.68;99733.66;4973178;28;20061;-53
2021/12/06 06:33:09;;;;;;;30.83;10.57;;;;;;;-1.94;70.95;99743.19;4973305;28;20050;-57
2021/12/06 06:35:37;;;;;;;27.92;11.13;;;;;;;-1.96;70.99;99744.47;4972695;28;20470;-57
2021/12/06 06:38:04;;;;;;;27.05;9.93;;;;;;;-1.88;70.78;99746.81;4965495;28;20098;-57
2021/12/06 06:40:32;;;;;;;27.55;10.25;;;;;;;-1.86;70.76;99748.19;4971491;28;20107;-58
2021/12/06 06:42:59;;;;;;;30.00;10.57;;;;;;;-1.83;70.58;99752.34;4974218;28;20085;-58
2021/12/06 06:45:26;;;;;;;20.60;7.70;;;;;;;-1.81;70.76;99763.00;4971823;28;20051;-56
2021/12/06 06:47:53;;;;;;;29.67;9.55;;;;;;;-1.84;70.92;99766.22;4972670;28;20058;-56
2021/12/06 06:50:22;;;;;;;18.33;7.75;;;;;;;-1.90;71.05;99766.13;4970505;28;20055;-57
2021/12/06 06:52:50;;;;;;;15.68;6.88;;;;;;;-1.96;70.96;99766.28;4972385;28;20138;-55
2021/12/06 06:55:19;;;;;;;17.40;8.00;;;;;;;-1.95;70.96;99768.75;4973073;28;20059;-59
2021/12/06 06:57:46;;;;;;;15.90;7.20;;;;;;;-1.89;70.60;99770.50;4972538;28;20422;-60
2021/12/06 07:00:19;;;;;;;19.70;10.32;;;;;;;-1.90;70.65;99787.94;4971007;28;20054;-57
2021/12/06 07:02:46;;;;;;;21.80;7.97;;;;;;;-1.93;70.92;99782.97;4972433;28;20150;-57
2021/12/06 07:05:14;;;;;;;19.95;6.70;;;;;;;-1.98;70.59;99785.59;4972434;28;20054;-58
2021/12/06 07:07:42;;;;;;;16.45;6.25;;;;;;;-2.06;70.62;99783.31;4972342;28;20061;-58
2021/12/06 07:10:09;;;;;;;16.13;6.95;;;;;;;-2.14;70.89;99793.75;4971008;28;20417;-59
2021/12/06 07:12:50;;;;;;;16.42;7.18;;;;;;;-2.30;71.32;99792.66;4970391;28;20054;-55
2021/12/06 07:15:20;;;;;;;14.50;6.38;;;;;;;-2.28;70.79;99782.34;4969517;28;20422;-53
2021/12/06 07:17:48;;;;;;;15.18;6.40;;;;;;;-2.27;71.14;99789.47;4972645;28;20055;-54
2021/12/06 07:20:15;;;;;;;13.88;6.05;;;;;;;-2.24;70.58;99791.69;4971078;28;20088;-55
2021/12/06 07:22:43;;;;;;;17.73;5.40;;;;;;;-2.23;70.56;99792.50;4972996;28;20150;-57
2021/12/06 07:25:13;;;;;;;13.75;6.03;;;;;;;-2.24;70.51;99802.59;4970442;28;20125;-57
2021/12/06 07:27:40;;;;;;;11.07;5.20;;;;;;;-2.32;70.16;99804.84;4969759;28;20042;-54
2021/12/06 07:30:09;;;;;;;22.00;5.85;;;;;;;-2.33;69.95;99793.16;4970627;28;20173;-57
2021/12/06 07:32:36;;;;;;;10.45;4.45;;;;;;;-2.29;70.01;99805.22;4970457;28;20136;-58
2021/12/06 07:35:05;;;;;;;12.60;4.95;;;;;;;-2.31;70.28;99812.78;4971343;28;20130;-53
2021/12/06 07:37:32;;;;;;;12.65;4.93;;;;;;;-2.37;70.30;99821.94;4971297;28;20223;-61
2021/12/06 07:39:59;;;;;;;9.73;4.57;;;;;;;-2.41;70.45;99818.03;4973844;28;20047;-57
2021/12/06 07:42:26;;;;;;;12.55;4.50;;;;;;;-2.38;70.32;99833.06;4969941;28;20053;-55
2021/12/06 07:44:53;;;;;;;11.07;4.55;;;;;;;-2.41;70.34;99815.31;4972078;28;20076;-58
2021/12/06 07:47:21;;;;;;;15.35;6.03;;;;;;;-2.40;70.38;99814.25;4969874;28;20061;-59
2021/12/06 07:49:48;;;;;;;11.80;5.07;;;;;;;-2.48;70.22;99806.47;4972312;28;20503;-56
2021/12/06 07:52:26;;;;;;;11.35;5.53;;;;;;;-2.45;70.21;99813.31;4970048;28;20047;-59
2021/12/06 07:54:58;;;;;;;13.35;6.35;;;;;;;-2.56;70.15;99806.84;4972120;28;20070;-56
2021/12/06 07:57:26;;;;;;;19.05;5.47;;;;;;;-2.59;70.51;99814.66;4969776;28;20050;-56
2021/12/06 07:59:55;;;;;;;15.93;5.80;;;;;;;-2.61;70.34;99817.63;4972480;28;20043;-58
2021/12/06 08:02:22;;;;;;;15.63;6.75;;;;;;;-2.63;70.32;99818.94;4970102;28;20063;-57
2021/12/06 08:04:59;;;;;;;13.48;5.43;;;;;;;-2.67;70.35;99817.75;4972530;28;20047;-58
2021/12/06 08:07:26;;;;;;;14.23;5.82;;;;;;;-2.73;70.95;99819.56;4972859;28;20046;-56
2021/12/06 08:09:53;;;;;;;13.07;5.82;;;;;;;-2.71;70.67;99820.16;4972029;28;20057;-57
2021/12/06 08:12:20;;;;;;;20.52;7.03;;;;;;;-2.73;70.35;99830.44;4969235;28;20066;-55
2021/12/06 08:14:47;;;;;;;13.02;5.55;;;;;;;-2.78;70.77;99838.50;4971982;28;20054;-58
2021/12/06 08:17:15;;;;;;;16.42;6.70;;;;;;;-2.83;70.80;99849.28;4969055;28;20059;-59
2021/12/06 08:19:42;;;;;;;22.10;7.70;;;;;;;-2.84;71.21;99847.59;4971757;28;20046;-57
2021/12/06 08:22:09;;;;;;;16.27;5.70;;;;;;;-2.96;71.03;99841.34;4970116;28;20057;-59
2021/12/06 08:24:36;;;;;;;17.98;7.20;;;;;;;-2.89;70.94;99844.78;4971734;28;20050;-57
2021/12/06 08:27:03;;;;;;;17.30;6.65;;;;;;;-2.87;70.70;99848.09;4969051;28;20050;-57
2021/12/06 08:29:30;;;;;;;19.58;7.07;;;;;;;-2.84;70.96;99839.44;4971570;28;20054;-57
2021/12/06 08:31:57;;;;;;;18.92;6.47;;;;;;;-2.82;70.87;99847.38;4969837;28;20047;-57
2021/12/06 08:34:24;;;;;;;17.45;7.10;;;;;;;-2.76;71.01;99847.25;4971384;28;20060;-57
2021/12/06 08:36:51;;;;;;;16.90;6.07;;;;;;;-2.79;71.45;99855.06;4971343;28;20063;-58
2021/12/06 08:39:18;;;;;;;17.05;6.55;;;;;;;-2.78;71.01;99854.00;4970239;28;20047;-57
2021/12/06 08:41:45;;;;;;;87.70;21.98;;;;;;;-2.74;71.10;99845.13;4971368;28;20406;-58
2021/12/06 08:44:13;;;;;;;16.00;6.22;;;;;;;-2.75;71.51;99843.44;4969315;28;20059;-56
2021/12/06 08:46:40;;;;;;;16.88;6.70;;;;;;;-2.84;71.75;99853.06;4971261;28;20078;-55
2021/12/06 08:49:10;;;;;;;21.83;7.68;;;;;;;-2.85;71.89;99858.72;4968997;28;20078;-58
2021/12/06 08:51:46;;;;;;;25.92;8.93;;;;;;;-2.83;71.65;99868.34;4971520;28;20589;-56
2021/12/06 08:54:22;;;;;;;21.00;8.35;;;;;;;-2.76;71.16;99860.88;4969027;28;20057;-60
2021/12/06 08:56:49;;;;;;;25.40;9.18;;;;;;;-2.72;71.07;99859.31;4971040;28;20133;-59
2021/12/06 08:59:16;;;;;;;21.25;10.23;;;;;;;-2.71;71.39;99860.16;4969011;28;20536;-51
2021/12/06 09:01:44;;;;;;;21.98;8.45;;;;;;;-2.77;71.65;99845.59;4971364;28;20070;-58
2021/12/06 09:04:34;;;;;;;36.50;13.55;;;;;;;-2.81;71.32;99841.69;4971569;28;20054;-58
2021/12/06 09:07:09;;;;;;;27.17;8.57;;;;;;;-2.82;71.85;99853.66;4969599;28;20054;-59
2021/12/06 09:09:45;;;;;;;27.98;9.18;;;;;;;-2.84;72.07;99838.63;4969834;28;20387;-59
2021/12/06 09:12:31;;;;;;;27.00;9.85;;;;;;;-2.83;72.12;99848.44;4969108;28;20047;-58
2021/12/06 09:15:03;;;;;;;28.58;9.52;;;;;;;-2.83;72.24;99835.69;4970988;28;20058;-54
2021/12/06 09:17:30;;;;;;;34.85;11.38;;;;;;;-2.89;72.01;99838.50;4970473;28;20134;-57
2021/12/06 09:19:57;;;;;;;29.42;11.68;;;;;;;-2.98;72.10;99832.63;4971465;28;20059;-54
2021/12/06 09:22:25;;;;;;;23.65;9.20;;;;;;;-3.02;72.51;99842.31;4968705;28;20146;-56
2021/12/06 09:24:52;;;;;;;30.58;9.00;;;;;;;-3.03;72.15;99850.72;4971045;28;20521;-56
2021/12/06 09:27:19;;;;;;;30.55;9.98;;;;;;;-3.12;72.59;99830.38;4969233;28;20059;-57
2021/12/06 09:29:46;;;;;;;26.95;9.77;;;;;;;-3.10;72.38;99850.00;4971214;28;20089;-56
2021/12/06 09:32:14;;;;;;;26.02;9.55;;;;;;;-3.06;72.61;99846.56;4968540;28;20055;-55
2021/12/06 09:34:44;;;;;;;24.00;8.73;;;;;;;-3.08;72.87;99843.25;4972832;28;20528;-55
2021/12/06 09:37:12;;;;;;;25.20;9.00;;;;;;;-3.03;72.24;99840.66;4972922;28;20050;-56
2021/12/06 09:39:40;;;;;;;18.85;7.35;;;;;;;-3.03;72.49;99843.38;4972988;28;20055;-57
2021/12/06 09:42:07;;;;;;;22.35;9.57;;;;;;;-3.18;72.10;99859.34;4973210;28;20046;-59
2021/12/06 09:44:35;;;;;;;28.13;8.75;;;;;;;-3.22;72.82;99862.78;4974671;28;20055;-59
2021/12/06 09:47:02;;;;;;;19.48;7.45;;;;;;;-3.22;72.92;99877.22;4974623;28;20055;-55
2021/12/06 09:49:30;;;;;;;21.83;8.70;;;;;;;-3.23;72.56;99861.94;4957543;28;20057;-57
2021/12/06 09:52:01;;;;;;;22.55;8.23;;;;;;;-3.24;72.71;99881.22;4974371;28;20518;-57
2021/12/06 09:54:33;;;;;;;21.88;8.80;;;;;;;-3.28;73.18;99872.72;4973123;28;20142;-58
2021/12/06 09:57:04;;;;;;;25.17;8.63;;;;;;;-3.27;73.05;99877.09;4958353;28;20467;-56
2021/12/06 09:59:34;;;;;;;30.52;7.35;;;;;;;-3.35;73.02;99876.63;4975036;28;20423;-57
2021/12/06 10:02:05;;;;;;;14.30;6.00;;;;;;;-3.35;72.30;99868.47;4974029;28;20094;-59
2021/12/06 10:04:38;;;;;;;70.35;22.08;;;;;;;-3.36;73.02;99862.19;4975083;28;20450;-59
2021/12/06 10:07:07;;;;;;;20.85;7.55;;;;;;;-3.37;72.65;99871.41;4973534;28;20109;-53
2021/12/06 10:09:34;;;;;;;23.15;7.35;;;;;;;-3.36;72.32;99873.06;4973566;28;20043;-58
2021/12/06 10:12:02;;;;;;;23.83;6.50;;;;;;;-3.37;72.29;99882.28;4974337;28;20053;-59
2021/12/06 10:14:29;;;;;;;25.92;8.93;;;;;;;-3.41;72.56;99891.97;4972072;28;20054;-56
2021/12/06 10:16:56;;;;;;;20.10;6.72;;;;;;;-3.40;72.35;99882.75;4973683;28;20418;-58
2021/12/06 10:19:25;;;;;;;20.05;7.05;;;;;;;-3.46;72.82;99867.38;4972168;28;20058;-58
2021/12/06 10:21:53;;;;;;;23.08;8.38;;;;;;;-3.50;73.01;99862.66;4973816;28;20482;-57
2021/12/06 10:24:26;;;;;;;25.67;7.15;;;;;;;-3.55;72.45;99870.66;4971646;28;20082;-58
2021/12/06 10:27:11;;;;;;;24.85;7.47;;;;;;;-3.48;72.71;99869.50;4973695;28;20430;-53
2021/12/06 10:29:49;;;;;;;18.08;6.65;;;;;;;-3.48;72.72;99874.09;4973775;28;20236;-55
2021/12/06 10:32:19;;;;;;;19.10;7.38;;;;;;;-3.49;72.60;99872.44;4971403;28;20050;-55
2021/12/06 10:34:56;;;;;;;22.70;6.05;;;;;;;-3.45;73.20;99879.91;4973473;28;20081;-56
2021/12/06 10:37:29;;;;;;;17.42;6.30;;;;;;;-3.55;72.74;99860.63;4971182;28;20145;-55
2021/12/06 10:39:56;;;;;;;19.13;7.07;;;;;;;-3.61;72.79;99875.16;4957811;28;20046;-57
2021/12/06 10:42:33;;;;;;;37.28;11.75;;;;;;;-3.53;73.32;99877.53;4974141;28;20057;-57
2021/12/06 10:45:06;;;;;;;19.38;6.72;;;;;;;-3.52;73.08;99873.75;4972993;28;20051;-55
2021/12/06 10:47:33;;;;;;;17.98;7.13;;;;;;;-3.51;72.39;99858.25;4970986;28;20063;-57
2021/12/06 10:50:16;;;;;;;17.50;6.35;;;;;;;-3.54;72.84;99859.56;4973521;28;20042;-55
2021/12/06 10:52:55;;;;;;;17.55;6.82;;;;;;;-3.58;72.75;99871.97;4971026;28;20054;-57
2021/12/06 10:55:27;;;;;;;22.98;7.28;;;;;;;-3.57;73.08;99870.91;4973843;28;20097;-59
2021/12/06 10:57:57;;;;;;;28.23;7.53;;;;;;;-3.62;73.39;99878.91;4973024;28;20134;-59
2021/12/06 11:00:42;;;;;;;18.52;7.13;;;;;;;-3.59;73.10;99873.03;4973253;28;20122;-55
2021/12/06 11:03:20;;;;;;;27.63;8.45;;;;;;;-3.58;72.94;99880.13;4972114;28;20062;-58
2021/12/06 11:05:58;;;;;;;20.15;6.85;;;;;;;-3.44;72.82;99892.44;4970970;28;20578;-57
2021/12/06 11:08:26;;;;;;;23.83;8.20;;;;;;;-3.36;72.32;99883.94;4973176;28;20051;-56
2021/12/06 11:10:57;;;;;;;15.95;5.93;;;;;;;-3.34;72.65;99898.13;4970954;28;20102;-59
2021/12/06 11:13:29;;;;;;;20.85;7.35;;;;;;;-3.29;72.53;99892.81;4972882;28;20051;-58
2021/12/06 11:16:13;;;;;;;20.90;7.55;;;;;;;-3.18;72.81;99904.75;4955367;28;20047;-56
2021/12/06 11:18:47;;;;;;;17.23;6.90;;;;;;;-3.37;73.26;99901.34;4973228;28;20454;-56
2021/12/06 11:21:23;;;;;;;24.73;7.57;;;;;;;-3.37;73.37;99897.78;4972523;28;20089;-57
2021/12/06 11:24:25;;;;;;;19.85;7.38;;;;;;;-3.25;72.67;99901.34;4972846;28;20078;-56
2021/12/06 11:27:00;;;;;;;21.58;8.02;;;;;;;-3.26;73.17;99908.66;4971616;28;20054;-58
2021/12/06 11:29:33;;;;;;;22.83;7.70;;;;;;;-3.22;73.17;99909.03;4967787;28;20042;-56
2021/12/06 11:32:03;;;;;;;28.77;8.43;;;;;;;-3.19;72.51;99900.41;4970965;28;20047;-54
2021/12/06 11:34:42;;;;;;;30.95;9.20;;;;;;;-3.21;72.69;99892.47;4969412;28;20082;-61
2021/12/06 11:37:17;;;;;;;30.13;8.60;;;;;;;-3.31;73.39;99894.94;4971063;28;20050;-56
2021/12/06 11:40:04;;;;;;;26.95;7.75;;;;;;;-3.29;73.18;99894.72;4973470;28;20097;-57
2021/12/06 11:42:45;;;;;;;30.83;9.30;;;;;;;-3.17;73.73;99899.09;4970195;28;21239;-57
2021/12/06 11:45:13;;;;;;;27.70;8.35;;;;;;;-3.11;73.39;99892.69;4972684;28;20121;-57